Kingsville, Missouri
Current Conditions -  °F | °C
As of 12:35 PM on Saturday 20 Dec 2014 (Local Time) from KRCM Reporting Station
Overcast Overcast  
Wind Chill:   Ceiling: 1200
Heat Index:   Visibility: 10mi
Dew Point:   Wind: 7mph
Humidity: 87%   Direction: 180°S
Pressure: 30.18"   Gusts: NA
Location:  38.74°N, 94.07°W
Report Text: KRCM 201835Z AUTO 18006KT 10SM OVC012 03/01 A3018 RMK AO2
Loading
Personal Weather Stations






























Interactive Weather Map New forecast layout! Learn more

10-Day Weather Forecast

Advertisements
Track Severe Weather on mobile